createdAt,value
2018-12-13T00:00:36.240Z,11.00
2018-12-13T00:03:07.100Z,10.70
2018-12-13T00:05:38.040Z,10.77
2018-12-13T00:08:06.857Z,10.27
2018-12-13T00:10:35.876Z,13.37
2018-12-13T00:13:04.859Z,15.10
2018-12-13T00:15:33.715Z,13.27
2018-12-13T00:18:02.801Z,12.03
2018-12-13T00:20:31.791Z,14.00
2018-12-13T00:23:00.690Z,11.47
2018-12-13T00:25:29.472Z,11.03
2018-12-13T00:27:58.282Z,11.10
2018-12-13T00:30:27.067Z,11.03
2018-12-13T00:32:56.248Z,11.03
2018-12-13T00:35:25.062Z,8.40
2018-12-13T00:37:54.088Z,8.57
2018-12-13T00:40:22.939Z,8.27
2018-12-13T00:42:51.757Z,12.10
2018-12-13T00:45:20.571Z,7.93
2018-12-13T00:47:49.381Z,8.20
2018-12-13T00:50:18.640Z,8.03
2018-12-13T00:52:47.567Z,7.77
2018-12-13T00:55:16.680Z,8.43
2018-12-13T00:57:45.465Z,9.33
2018-12-13T01:00:14.327Z,9.25
2018-12-13T01:02:44.347Z,11.13
2018-12-13T01:05:13.575Z,11.33
2018-12-13T01:07:42.565Z,8.60
2018-12-13T01:10:11.360Z,10.50
2018-12-13T01:12:40.181Z,5.97
2018-12-13T01:15:09.237Z,9.67
2018-12-13T01:17:38.404Z,7.70
2018-12-13T01:20:07.424Z,6.93
2018-12-13T01:22:36.568Z,5.77
2018-12-13T01:25:05.424Z,7.67
2018-12-13T01:27:35.740Z,7.27
2018-12-13T01:30:05.395Z,7.67
2018-12-13T01:32:35.568Z,9.73
2018-12-13T01:35:05.063Z,8.07
2018-12-13T01:37:34.475Z,7.57
2018-12-13T01:40:03.832Z,8.00
2018-12-13T01:42:32.692Z,7.90
2018-12-13T01:45:01.791Z,10.20
2018-12-13T01:47:30.727Z,7.93
2018-12-13T01:49:59.746Z,8.00
2018-12-13T01:52:28.533Z,7.23
2018-12-13T01:54:57.343Z,10.73
2018-12-13T01:57:26.204Z,8.80
2018-12-13T01:59:55.028Z,9.88
2018-12-13T02:02:23.992Z,8.33
2018-12-13T02:04:52.816Z,8.20
2018-12-13T02:07:22.381Z,12.63
2018-12-13T02:09:51.691Z,9.43
2018-12-13T02:12:21.298Z,8.00
2018-12-13T02:14:50.601Z,9.20
2018-12-13T02:17:19.708Z,7.57
2018-12-13T02:19:48.508Z,7.63
2018-12-13T02:22:17.324Z,9.00
2018-12-13T02:24:46.695Z,7.97
2018-12-13T02:27:15.764Z,8.10
2018-12-13T02:29:47.036Z,9.30
2018-12-13T02:32:16.009Z,6.47
2018-12-13T02:34:44.859Z,6.60
2018-12-13T02:37:14.391Z,6.67
2018-12-13T02:39:43.203Z,5.90
2018-12-13T02:42:12.267Z,8.07
2018-12-13T02:44:41.096Z,7.23
2018-12-13T02:47:10.312Z,5.50
2018-12-13T02:49:39.139Z,5.97
2018-12-13T02:52:07.928Z,6.83
2018-12-13T02:54:36.708Z,4.17
2018-12-13T02:57:05.496Z,5.77
2018-12-13T02:59:34.304Z,7.67
2018-12-13T03:02:03.508Z,5.10
2018-12-13T03:04:32.519Z,9.67
2018-12-13T03:07:03.128Z,4.80
2018-12-13T03:09:32.228Z,4.73
2018-12-13T03:12:01.063Z,7.40
2018-12-13T03:14:30.240Z,5.90
2018-12-13T03:17:00.032Z,7.07
2018-12-13T03:19:28.820Z,5.97
2018-12-13T03:21:57.706Z,8.33
2018-12-13T03:24:26.531Z,10.33
2018-12-13T03:26:55.336Z,8.10
2018-12-13T03:29:24.145Z,7.97
2018-12-13T03:31:53.407Z,5.07
2018-12-13T03:34:22.664Z,5.73
2018-12-13T03:36:51.548Z,5.37
2018-12-13T03:39:20.335Z,6.37
2018-12-13T03:41:49.206Z,6.47
2018-12-13T03:44:17.987Z,7.47
2018-12-13T03:46:46.816Z,6.80
2018-12-13T03:49:15.634Z,6.17
2018-12-13T03:51:44.768Z,7.23
2018-12-13T03:54:13.543Z,5.53
2018-12-13T03:56:42.348Z,7.30
2018-12-13T03:59:11.185Z,6.60
2018-12-13T04:01:40.023Z,7.33
2018-12-13T04:04:08.812Z,6.10
2018-12-13T04:06:37.904Z,6.77
2018-12-13T04:09:07.466Z,5.17
2018-12-13T04:11:37.983Z,6.87
2018-12-13T04:14:06.784Z,6.20
2018-12-13T04:16:35.580Z,4.97
2018-12-13T04:19:04.856Z,10.70
2018-12-13T04:21:33.864Z,6.00
2018-12-13T04:24:02.965Z,6.80
2018-12-13T04:26:32.449Z,4.37
2018-12-13T04:29:01.751Z,7.47
2018-12-13T04:31:30.715Z,9.67
2018-12-13T04:33:59.504Z,7.27
2018-12-13T04:36:28.392Z,6.20
2018-12-13T04:38:57.413Z,5.50
2018-12-13T04:41:26.188Z,7.53
2018-12-13T04:43:55.016Z,7.63
2018-12-13T04:46:24.139Z,6.40
2018-12-13T04:48:53.388Z,8.07
2018-12-13T04:51:22.177Z,6.90
2018-12-13T04:53:51.205Z,8.60
2018-12-13T04:56:20.672Z,6.73
2018-12-13T04:58:49.715Z,7.67
2018-12-13T05:01:18.717Z,6.67
2018-12-13T05:03:47.545Z,5.97
2018-12-13T05:06:16.456Z,6.10
2018-12-13T05:08:45.245Z,6.90
2018-12-13T05:11:14.076Z,5.13
2018-12-13T05:13:42.895Z,6.80
2018-12-13T05:16:11.689Z,8.07
2018-12-13T05:18:40.885Z,8.43
2018-12-13T05:21:09.708Z,10.13
2018-12-13T05:23:38.739Z,6.47
2018-12-13T05:26:07.720Z,7.23
2018-12-13T05:28:36.966Z,6.07
2018-12-13T05:31:06.044Z,5.50
2018-12-13T05:33:35.535Z,8.10
2018-12-13T05:36:05.372Z,7.23
2018-12-13T05:38:34.489Z,9.07
2018-12-13T05:41:03.288Z,7.17
2018-12-13T05:43:32.065Z,7.20
2018-12-13T05:46:00.844Z,12.80
2018-12-13T05:48:29.668Z,6.80
2018-12-13T05:50:58.455Z,7.83
2018-12-13T05:53:27.812Z,8.90
2018-12-13T05:55:56.868Z,8.93
2018-12-13T05:58:25.819Z,7.83
2018-12-13T06:00:54.996Z,7.97
2018-12-13T06:03:24.044Z,8.83
2018-12-13T06:05:53.148Z,11.37
2018-12-13T06:08:22.202Z,12.17
2018-12-13T06:10:51.075Z,12.47
2018-12-13T06:13:19.887Z,8.67
2018-12-13T06:15:48.728Z,12.97
2018-12-13T06:18:17.508Z,9.33
2018-12-13T06:20:46.432Z,8.87
2018-12-13T06:23:15.768Z,13.93
2018-12-13T06:25:44.620Z,12.60
2018-12-13T06:28:14.209Z,11.30
2018-12-13T06:30:43.817Z,11.67
2018-12-13T06:33:13.213Z,12.43
2018-12-13T06:35:42.354Z,26.43
2018-12-13T06:38:11.163Z,33.47
2018-12-13T06:40:39.997Z,42.07
2018-12-13T06:43:08.807Z,37.77
2018-12-13T06:45:37.619Z,33.70
2018-12-13T06:48:06.518Z,27.53
2018-12-13T06:50:35.386Z,21.63
2018-12-13T06:53:04.255Z,18.27
2018-12-13T06:55:33.072Z,17.50
2018-12-13T06:58:01.936Z,19.33
2018-12-13T07:00:30.991Z,20.27
2018-12-13T07:02:59.825Z,22.23
2018-12-13T07:05:28.663Z,21.47
2018-12-13T07:07:57.479Z,21.30
2018-12-13T07:10:26.692Z,25.53
2018-12-13T07:12:55.495Z,25.47
2018-12-13T07:15:24.535Z,21.53
2018-12-13T07:17:53.360Z,17.37
2018-12-13T07:20:22.298Z,14.63
2018-12-13T07:22:51.205Z,11.57
2018-12-13T07:25:21.472Z,11.63
2018-12-13T07:27:50.860Z,14.30
2018-12-13T07:30:19.932Z,13.13
2018-12-13T07:32:49.469Z,14.13
2018-12-13T07:35:28.752Z,16.97
2018-12-13T07:37:59.232Z,23.93
2018-12-13T07:40:28.123Z,13.93
2018-12-13T07:42:57.083Z,12.50
2018-12-13T07:45:25.909Z,11.27
2018-12-13T07:47:54.703Z,15.37
2018-12-13T07:50:24.310Z,16.13
2018-12-13T07:52:54.473Z,15.00
2018-12-13T07:55:23.584Z,16.23
2018-12-13T07:57:52.571Z,19.43
2018-12-13T08:00:22.372Z,12.83
2018-12-13T08:02:51.915Z,16.73
2018-12-13T08:05:20.739Z,16.23
2018-12-13T08:07:50.088Z,8.57
2018-12-13T08:10:19.696Z,8.77
2018-12-13T08:12:49.138Z,11.93
2018-12-13T08:15:18.179Z,19.07
2018-12-13T08:17:47.632Z,8.87
2018-12-13T08:20:19.038Z,27.80
2018-12-13T08:22:50.043Z,14.10
2018-12-13T08:25:21.551Z,11.00
2018-12-13T08:27:50.640Z,15.13
2018-12-13T08:30:20.486Z,25.93
2018-12-13T08:32:49.890Z,14.67
2018-12-13T08:35:19.397Z,7.57
2018-12-13T08:37:50.314Z,10.63
2018-12-13T08:40:22.479Z,10.93
2018-12-13T08:42:55.564Z,10.13
2018-12-13T08:45:25.764Z,9.23
2018-12-13T08:47:55.100Z,7.23
2018-12-13T08:50:29.449Z,7.97
2018-12-13T08:52:59.516Z,8.20
2018-12-13T08:55:28.500Z,5.67
2018-12-13T08:57:58.723Z,7.23
2018-12-13T09:00:27.912Z,5.80
2018-12-13T09:02:57.483Z,6.03
2018-12-13T09:05:26.632Z,7.00
2018-12-13T09:07:55.658Z,8.17
2018-12-13T09:10:24.608Z,9.13
2018-12-13T09:12:53.616Z,8.50
2018-12-13T09:15:23.533Z,7.00
2018-12-13T09:17:52.563Z,8.37
2018-12-13T09:20:22.106Z,13.07
2018-12-13T09:22:52.305Z,16.73
2018-12-13T09:25:23.073Z,25.03
2018-12-13T09:27:53.608Z,18.30
2018-12-13T09:30:24.207Z,8.53
2018-12-13T09:32:53.983Z,14.23
2018-12-13T09:35:22.867Z,7.97
2018-12-13T09:37:51.864Z,10.30
2018-12-13T09:40:21.017Z,9.90
2018-12-13T09:42:49.893Z,12.33
2018-12-13T09:45:19.351Z,9.00
2018-12-13T09:47:48.651Z,9.20
2018-12-13T09:50:17.820Z,8.43
2018-12-13T09:52:47.136Z,9.50
2018-12-13T09:55:17.170Z,9.67
2018-12-13T09:57:46.267Z,11.20
2018-12-13T10:00:15.770Z,10.63
2018-12-13T10:02:46.824Z,13.40
2018-12-13T10:05:17.448Z,11.93
2018-12-13T10:07:46.925Z,15.80
2018-12-13T10:10:16.508Z,14.57
2018-12-13T10:12:45.467Z,19.50
2018-12-13T10:15:14.761Z,14.90
2018-12-13T10:17:43.621Z,12.47
2018-12-13T10:20:13.056Z,10.70
2018-12-13T10:22:42.327Z,11.40
2018-12-13T10:25:12.758Z,17.23
2018-12-13T10:27:41.721Z,15.17
2018-12-13T10:30:10.616Z,14.57
2018-12-13T10:32:39.599Z,18.07
2018-12-13T10:35:11.232Z,20.97
2018-12-13T10:37:40.296Z,15.80
2018-12-13T10:40:10.109Z,15.80
2018-12-13T10:42:39.488Z,13.53
2018-12-13T10:45:09.425Z,15.70
2018-12-13T10:47:39.235Z,19.37
2018-12-13T10:50:08.803Z,17.50
2018-12-13T10:52:38.093Z,17.00
2018-12-13T10:55:07.883Z,20.80
2018-12-13T10:57:37.155Z,19.57
2018-12-13T11:00:11.986Z,25.17
2018-12-13T11:02:56.031Z,19.07
2018-12-13T11:05:25.056Z,21.43
2018-12-13T11:07:53.977Z,23.37
2018-12-13T11:10:25.513Z,23.33
2018-12-13T11:12:55.311Z,21.50
2018-12-13T11:15:24.220Z,20.07
2018-12-13T11:17:53.569Z,22.40
2018-12-13T11:20:22.823Z,20.50
2018-12-13T11:22:54.142Z,17.23
2018-12-13T11:25:24.008Z,22.63
2018-12-13T11:28:13.245Z,21.70
2018-12-13T11:30:44.137Z,20.47
2018-12-13T11:33:14.791Z,18.83
2018-12-13T11:35:47.836Z,21.23
2018-12-13T11:38:17.060Z,22.43
2018-12-13T11:40:46.269Z,27.17
2018-12-13T11:43:15.752Z,24.43
2018-12-13T11:45:44.725Z,22.23
2018-12-13T11:48:14.592Z,27.50
2018-12-13T11:50:43.583Z,24.73
2018-12-13T11:53:12.807Z,24.80
2018-12-13T11:55:41.845Z,32.80
2018-12-13T11:58:14.593Z,24.93
2018-12-13T12:00:43.703Z,24.03
2018-12-13T12:03:12.668Z,25.87
2018-12-13T12:05:41.684Z,23.17
2018-12-13T12:08:10.680Z,22.30
2018-12-13T12:10:40.604Z,21.20
2018-12-13T12:13:09.587Z,25.20
2018-12-13T12:15:38.972Z,21.77
2018-12-13T12:18:07.906Z,26.57
2018-12-13T12:20:38.179Z,24.30
2018-12-13T12:23:07.412Z,24.67
2018-12-13T12:25:37.036Z,24.23
2018-12-13T12:28:07.711Z,21.53
2018-12-13T12:30:36.762Z,20.53
2018-12-13T12:33:05.726Z,19.43
2018-12-13T12:35:34.541Z,24.67
2018-12-13T12:38:03.348Z,22.67
2018-12-13T12:40:32.143Z,20.10
2018-12-13T12:43:01.005Z,18.63
2018-12-13T12:45:30.106Z,18.50
2018-12-13T12:47:59.866Z,22.73
2018-12-13T12:50:28.723Z,22.03
2018-12-13T12:52:57.550Z,19.37
2018-12-13T12:55:30.117Z,25.37
2018-12-13T12:57:59.475Z,19.90
2018-12-13T13:00:29.599Z,23.37
2018-12-13T13:03:01.754Z,23.63
2018-12-13T13:05:35.419Z,24.97
2018-12-13T13:08:06.612Z,22.23
2018-12-13T13:10:37.589Z,21.20
2018-12-13T13:13:07.695Z,21.07
2018-12-13T13:15:36.875Z,26.03
2018-12-13T13:18:06.457Z,24.77
2018-12-13T13:20:36.893Z,25.53
2018-12-13T13:23:05.976Z,24.23
2018-12-13T13:25:35.013Z,25.97
2018-12-13T13:28:04.019Z,54.63
2018-12-13T13:30:38.500Z,28.23
2018-12-13T13:33:08.028Z,27.33
2018-12-13T13:35:37.603Z,31.27
2018-12-13T13:38:06.698Z,26.13
2018-12-13T13:40:35.679Z,30.63
2018-12-13T13:43:05.235Z,28.37
2018-12-13T13:45:35.036Z,27.47
2018-12-13T13:48:06.544Z,28.50
2018-12-13T13:50:37.415Z,30.73
2018-12-13T13:53:06.400Z,32.63
2018-12-13T13:55:35.392Z,40.30
2018-12-13T13:58:09.365Z,50.15
2018-12-13T14:00:40.445Z,47.33
2018-12-13T14:03:14.107Z,47.07
2018-12-13T14:05:47.557Z,51.00
2018-12-13T14:08:22.409Z,252.80
2018-12-13T14:10:53.523Z,65.53
2018-12-13T14:13:23.066Z,48.17
2018-12-13T14:15:52.011Z,48.37
2018-12-13T14:18:22.419Z,40.60
2018-12-13T14:20:56.285Z,41.93
2018-12-13T14:23:32.853Z,44.63
2018-12-13T14:26:02.120Z,43.97
2018-12-13T14:28:31.534Z,44.67
2018-12-13T14:31:00.851Z,50.70
2018-12-13T14:33:30.406Z,47.40
2018-12-13T14:36:00.216Z,46.97
2018-12-13T14:38:29.043Z,48.87
2018-12-13T14:41:00.172Z,50.10
2018-12-13T14:43:32.247Z,50.73
2018-12-13T14:46:01.535Z,42.57
2018-12-13T14:48:30.460Z,44.53
2018-12-13T14:50:59.383Z,40.10
2018-12-13T14:53:28.568Z,35.97
2018-12-13T14:55:57.420Z,40.23
2018-12-13T14:58:26.285Z,43.40
2018-12-13T15:00:55.143Z,37.47
2018-12-13T15:03:24.513Z,38.10
2018-12-13T15:05:54.635Z,40.87
2018-12-13T15:08:23.888Z,40.87
2018-12-13T15:10:52.722Z,36.53
2018-12-13T15:13:21.625Z,41.10
2018-12-13T15:15:52.628Z,33.17
2018-12-13T15:18:22.059Z,32.00
2018-12-13T15:20:51.616Z,38.70
2018-12-13T15:23:20.432Z,36.37
2018-12-13T15:25:50.409Z,34.37
2018-12-13T15:28:19.492Z,35.17
2018-12-13T15:30:48.416Z,33.87
2018-12-13T15:33:17.345Z,36.93
2018-12-13T15:35:46.773Z,40.23
2018-12-13T15:38:15.590Z,35.70
2018-12-13T15:40:44.436Z,35.00
2018-12-13T15:43:13.448Z,35.33
2018-12-13T15:45:42.312Z,30.70
2018-12-13T15:48:11.163Z,36.07
2018-12-13T15:50:40.833Z,32.20
2018-12-13T15:53:09.737Z,32.77
2018-12-13T15:55:38.584Z,29.07
2018-12-13T15:58:08.791Z,28.17
2018-12-13T16:00:37.760Z,35.13
2018-12-13T16:03:07.295Z,40.23
2018-12-13T16:05:37.582Z,35.20
2018-12-13T16:08:07.457Z,41.97
2018-12-13T16:10:36.726Z,44.03
2018-12-13T16:13:05.556Z,47.20
2018-12-13T16:15:34.379Z,39.50
2018-12-13T16:18:03.236Z,38.87
2018-12-13T16:20:32.202Z,38.00
2018-12-13T16:23:02.382Z,40.33
2018-12-13T16:25:31.311Z,46.80
2018-12-13T16:28:00.144Z,46.57
2018-12-13T16:30:29.284Z,49.88
2018-12-13T16:32:58.544Z,54.23
2018-12-13T16:35:27.392Z,48.90
2018-12-13T16:37:56.572Z,47.97
2018-12-13T16:40:25.480Z,49.03
2018-12-13T16:42:55.045Z,45.57
2018-12-13T16:45:23.957Z,51.87
2018-12-13T16:47:52.837Z,48.53
2018-12-13T16:50:22.661Z,53.40
2018-12-13T16:52:51.647Z,60.37
2018-12-13T16:55:20.502Z,65.40
2018-12-13T16:57:50.328Z,58.53
2018-12-13T17:00:22.150Z,58.17
2018-12-13T17:02:52.731Z,59.07
2018-12-13T17:05:21.588Z,58.73
2018-12-13T17:08:07.575Z,53.80
2018-12-13T17:10:36.752Z,56.70
2018-12-13T17:13:05.932Z,51.70
2018-12-13T17:15:35.217Z,43.67
2018-12-13T17:18:04.270Z,45.47
2018-12-13T17:20:34.383Z,47.63
2018-12-13T17:23:04.785Z,40.23
2018-12-13T17:25:33.997Z,43.47
2018-12-13T17:28:02.954Z,41.47
2018-12-13T17:30:32.155Z,41.33
2018-12-13T17:33:01.497Z,43.20
2018-12-13T17:35:31.160Z,47.55
2018-12-13T17:38:00.483Z,41.50
2018-12-13T17:40:32.481Z,38.80
2018-12-13T17:43:04.324Z,41.97
2018-12-13T17:45:34.004Z,44.23
2018-12-13T17:48:04.014Z,43.23
2018-12-13T17:50:33.732Z,39.00
2018-12-13T17:53:02.812Z,38.70
2018-12-13T17:55:31.684Z,42.97
2018-12-13T17:58:00.562Z,36.30
2018-12-13T18:00:29.736Z,35.95
2018-12-13T18:02:59.110Z,40.37
2018-12-13T18:05:27.957Z,43.93
2018-12-13T18:07:56.756Z,35.10
2018-12-13T18:10:29.396Z,34.33
2018-12-13T18:12:56.884Z,38.80
2018-12-13T18:15:25.807Z,41.37
2018-12-13T18:17:54.706Z,38.33
2018-12-13T18:20:23.537Z,42.40
2018-12-13T18:22:52.864Z,44.57
2018-12-13T18:25:21.697Z,41.93
2018-12-13T18:27:50.587Z,35.60
2018-12-13T18:30:19.564Z,29.20
2018-12-13T18:32:48.503Z,26.20
2018-12-13T18:35:17.413Z,27.70
2018-12-13T18:37:46.222Z,29.15
2018-12-13T18:40:15.042Z,36.27
2018-12-13T18:42:43.869Z,36.87
2018-12-13T18:45:12.703Z,26.27
2018-12-13T18:47:41.600Z,31.77
2018-12-13T18:50:10.432Z,30.97
2018-12-13T18:52:39.326Z,36.43
2018-12-13T18:55:08.182Z,29.23
2018-12-13T18:57:37.006Z,33.67
2018-12-13T19:00:06.352Z,26.87
2018-12-13T19:02:35.653Z,22.40
2018-12-13T19:05:04.768Z,27.00
2018-12-13T19:07:34.247Z,22.17
2018-12-13T19:10:03.775Z,28.20
2018-12-13T19:12:32.728Z,27.00
2018-12-13T19:15:01.742Z,30.77
2018-12-13T19:17:31.729Z,34.10
2018-12-13T19:20:02.851Z,61.40
2018-12-13T19:22:32.062Z,64.33
2018-12-13T19:25:02.290Z,65.20
2018-12-13T19:27:31.341Z,80.97
2018-12-13T19:30:01.172Z,58.73
2018-12-13T19:32:30.399Z,57.83
2018-12-13T19:35:00.347Z,51.43
2018-12-13T19:37:29.406Z,45.97
2018-12-13T19:39:58.838Z,53.30
2018-12-13T19:42:28.764Z,48.30
2018-12-13T19:44:57.566Z,80.40
2018-12-13T19:47:26.972Z,94.70
2018-12-13T19:49:59.559Z,87.07
2018-12-13T19:52:29.763Z,93.53
2018-12-13T19:54:59.524Z,92.70
2018-12-13T19:57:28.399Z,81.87
2018-12-13T19:59:57.432Z,74.87
2018-12-13T20:02:27.609Z,64.07
2018-12-13T20:04:56.603Z,68.90
2018-12-13T20:07:25.451Z,68.13
2018-12-13T20:09:54.331Z,64.07
2018-12-13T20:12:23.194Z,66.03
2018-12-13T20:14:58.118Z,66.40
2018-12-13T20:17:29.293Z,66.87
2018-12-13T20:19:58.448Z,59.37
2018-12-13T20:22:27.291Z,64.37
2018-12-13T20:24:56.282Z,54.87
2018-12-13T20:27:25.350Z,57.03
2018-12-13T20:29:54.489Z,53.40
2018-12-13T20:32:24.428Z,46.77
2018-12-13T20:34:53.460Z,50.40
2018-12-13T20:37:22.332Z,48.97
2018-12-13T20:39:51.467Z,46.50
2018-12-13T20:42:20.495Z,43.73
2018-12-13T20:44:50.274Z,44.83
2018-12-13T20:47:20.035Z,49.90
2018-12-13T20:49:51.985Z,46.93
2018-12-13T20:52:22.571Z,42.70
2018-12-13T20:54:53.978Z,55.53
2018-12-13T20:57:24.154Z,51.23
2018-12-13T20:59:56.226Z,48.30
2018-12-13T21:02:26.789Z,49.80
2018-12-13T21:04:56.823Z,41.43
2018-12-13T21:07:32.065Z,38.53
2018-12-13T21:10:01.177Z,40.90
2018-12-13T21:12:30.923Z,52.37
2018-12-13T21:15:03.753Z,53.17
2018-12-13T21:17:33.820Z,54.77
2018-12-13T21:20:02.829Z,63.57
2018-12-13T21:22:31.713Z,62.50
2018-12-13T21:25:00.783Z,71.00
2018-12-13T21:27:29.922Z,73.87
2018-12-13T21:29:59.175Z,73.40
2018-12-13T21:32:28.326Z,82.00
2018-12-13T21:34:59.243Z,83.83
2018-12-13T21:37:28.947Z,92.47
2018-12-13T21:39:59.029Z,111.62
2018-12-13T21:42:28.214Z,114.17
2018-12-13T21:44:59.436Z,110.23
2018-12-13T21:47:28.497Z,104.07
2018-12-13T21:49:59.963Z,113.90
2018-12-13T21:52:30.557Z,113.33
2018-12-13T21:54:59.648Z,99.53
2018-12-13T21:57:29.279Z,110.20
2018-12-13T21:59:58.340Z,106.67
2018-12-13T22:02:28.004Z,99.27
2018-12-13T22:04:57.000Z,99.03
2018-12-13T22:07:26.095Z,95.73
2018-12-13T22:09:55.033Z,101.77
2018-12-13T22:12:23.920Z,94.63
2018-12-13T22:14:52.955Z,96.57
2018-12-13T22:17:21.808Z,103.47
2018-12-13T22:19:50.731Z,104.77
2018-12-13T22:22:22.275Z,92.63
2018-12-13T22:24:51.926Z,99.40
2018-12-13T22:27:21.057Z,107.27
2018-12-13T22:29:51.841Z,105.57
2018-12-13T22:32:20.744Z,102.50
2018-12-13T22:34:49.618Z,104.80
2018-12-13T22:37:18.767Z,96.73
2018-12-13T22:39:48.127Z,105.32
2018-12-13T22:42:19.131Z,104.50
2018-12-13T22:44:48.638Z,92.03
2018-12-13T22:47:18.517Z,99.97
2018-12-13T22:49:47.517Z,101.30
2018-12-13T22:52:16.944Z,93.47
2018-12-13T22:54:46.200Z,92.97
2018-12-13T22:57:14.997Z,77.27
2018-12-13T22:59:44.230Z,84.87
2018-12-13T23:02:13.092Z,82.55
2018-12-13T23:04:41.940Z,80.93
2018-12-13T23:07:12.533Z,78.03
2018-12-13T23:09:41.642Z,74.97
2018-12-13T23:12:10.611Z,74.93
2018-12-13T23:14:39.595Z,69.97
2018-12-13T23:17:08.920Z,62.80
2018-12-13T23:19:37.747Z,69.03
2018-12-13T23:22:06.637Z,66.43
2018-12-13T23:24:35.452Z,56.93
2018-12-13T23:27:04.431Z,69.93
2018-12-13T23:29:33.372Z,62.43
2018-12-13T23:32:02.206Z,61.43
2018-12-13T23:34:31.076Z,62.87
2018-12-13T23:37:00.651Z,65.40
2018-12-13T23:39:29.442Z,57.13
2018-12-13T23:42:02.487Z,61.10
2018-12-13T23:44:32.268Z,58.33
2018-12-13T23:47:01.138Z,54.67
2018-12-13T23:49:29.932Z,55.27
2018-12-13T23:51:58.814Z,54.77
2018-12-13T23:54:27.645Z,53.97
2018-12-13T23:56:56.483Z,54.73
2018-12-13T23:59:25.579Z,51.00
